createdAt,value
2022-08-03T00:02:18.638Z,99974.50
2022-08-03T00:04:46.868Z,99970.31
2022-08-03T00:07:14.984Z,99962.38
2022-08-03T00:09:44.527Z,99966.38
2022-08-03T00:12:12.826Z,99972.38
2022-08-03T00:14:40.993Z,99975.53
2022-08-03T00:17:10.040Z,99975.66
2022-08-03T00:19:38.125Z,99974.41
2022-08-03T00:22:06.248Z,99974.09
2022-08-03T00:24:36.335Z,99981.03
2022-08-03T00:27:05.948Z,99980.66
2022-08-03T00:29:34.028Z,99978.59
2022-08-03T00:32:22.575Z,99980.19
2022-08-03T00:34:57.854Z,99994.00
2022-08-03T00:37:41.073Z,99994.19
2022-08-03T00:40:10.419Z,99995.16
2022-08-03T00:42:49.280Z,99990.09
2022-08-03T00:45:17.871Z,99998.72
2022-08-03T00:47:46.275Z,99988.34
2022-08-03T00:50:14.511Z,99998.38
2022-08-03T00:52:43.069Z,100003.59
2022-08-03T00:55:11.833Z,100008.97
2022-08-03T00:57:40.919Z,99998.53
2022-08-03T01:00:14.163Z,99996.84
2022-08-03T01:02:42.709Z,99997.69
2022-08-03T01:05:11.491Z,99997.41
2022-08-03T01:07:47.827Z,99993.75
2022-08-03T01:10:24.742Z,99990.25
2022-08-03T01:13:00.192Z,100001.94
2022-08-03T01:15:36.517Z,100005.16
2022-08-03T01:18:11.027Z,100000.81
2022-08-03T01:20:44.931Z,100006.38
2022-08-03T01:23:41.524Z,100005.25
2022-08-03T01:26:36.543Z,100005.25
2022-08-03T01:29:26.464Z,100004.66
2022-08-03T01:32:58.899Z,100004.38
2022-08-03T01:34:57.451Z,100007.22
2022-08-03T01:37:33.817Z,100003.56
2022-08-03T01:40:10.111Z,100008.75
2022-08-03T01:42:41.748Z,99992.88
2022-08-03T01:45:15.163Z,99996.25
2022-08-03T01:47:47.606Z,99993.56
2022-08-03T01:50:18.277Z,100004.00
2022-08-03T01:52:49.871Z,99990.88
2022-08-03T01:55:21.746Z,99993.56
2022-08-03T01:58:06.040Z,99985.69
2022-08-03T02:00:37.607Z,99997.91
2022-08-03T02:03:10.560Z,99993.13
2022-08-03T02:05:42.122Z,99999.66
2022-08-03T02:08:14.895Z,99993.06
2022-08-03T02:10:46.380Z,99997.59
2022-08-03T02:13:17.254Z,99999.53
2022-08-03T02:15:48.552Z,99994.59
2022-08-03T02:18:21.950Z,99995.88
2022-08-03T02:20:52.083Z,99994.47
2022-08-03T02:23:21.632Z,100004.47
2022-08-03T02:25:55.035Z,99997.59
2022-08-03T02:28:27.226Z,100001.56
2022-08-03T02:30:57.978Z,100005.91
2022-08-03T02:33:33.854Z,99999.25
2022-08-03T02:36:04.660Z,99996.59
2022-08-03T02:38:36.524Z,100003.81
2022-08-03T02:41:09.676Z,99997.50
2022-08-03T02:44:05.921Z,100000.44
2022-08-03T02:46:34.942Z,100001.31
2022-08-03T02:49:49.574Z,100009.22
2022-08-03T02:51:57.861Z,100009.09
2022-08-03T02:54:28.433Z,100007.84
2022-08-03T02:57:00.542Z,100009.69
2022-08-03T02:59:33.366Z,100006.44
2022-08-03T03:02:04.247Z,100012.34
2022-08-03T03:04:35.834Z,100012.63
2022-08-03T03:07:05.773Z,100007.56
2022-08-03T03:09:43.153Z,100007.88
2022-08-03T03:12:13.993Z,100006.47
2022-08-03T03:14:42.568Z,100003.78
2022-08-03T03:17:12.527Z,100013.34
2022-08-03T03:19:45.347Z,100009.28
2022-08-03T03:22:15.408Z,100004.19
2022-08-03T03:24:44.181Z,100005.34
2022-08-03T03:27:16.602Z,100010.13
2022-08-03T03:29:45.361Z,100002.38
2022-08-03T03:32:13.864Z,100016.00
2022-08-03T03:34:44.317Z,100001.94
2022-08-03T03:37:12.592Z,100013.50
2022-08-03T03:39:40.957Z,100010.81
2022-08-03T03:42:09.390Z,100019.09
2022-08-03T03:44:37.633Z,100010.38
2022-08-03T03:47:05.786Z,100010.38
2022-08-03T03:49:34.236Z,100014.56
2022-08-03T03:52:03.793Z,100021.22
2022-08-03T03:54:40.985Z,100008.28
2022-08-03T03:57:13.029Z,100007.78
2022-08-03T03:59:42.950Z,100005.53
2022-08-03T04:02:12.611Z,100007.59
2022-08-03T04:04:57.934Z,100001.56
2022-08-03T04:07:46.358Z,100003.66
2022-08-03T04:10:35.999Z,100001.75
2022-08-03T04:13:08.314Z,100004.16
2022-08-03T04:15:38.487Z,100010.75
2022-08-03T04:18:09.853Z,100002.09
2022-08-03T04:20:40.037Z,100008.97
2022-08-03T04:23:14.207Z,100007.47
2022-08-03T04:25:45.305Z,100012.47
2022-08-03T04:28:30.981Z,100012.38
2022-08-03T04:31:00.873Z,100007.28
2022-08-03T04:33:33.118Z,100012.63
2022-08-03T04:36:07.932Z,100005.50
2022-08-03T04:38:40.197Z,100016.88
2022-08-03T04:41:10.148Z,100021.41
2022-08-03T04:43:40.902Z,100025.00
2022-08-03T04:46:10.300Z,100016.19
2022-08-03T04:48:41.287Z,100020.81
2022-08-03T04:51:13.128Z,100019.19
2022-08-03T04:53:43.970Z,100019.66
2022-08-03T04:56:12.103Z,100028.78
2022-08-03T04:58:40.327Z,100035.41
2022-08-03T05:01:08.828Z,100034.13
2022-08-03T05:03:36.938Z,100047.56
2022-08-03T05:06:11.091Z,100037.53
2022-08-03T05:08:47.070Z,100035.97
2022-08-03T05:11:20.289Z,100038.28
2022-08-03T05:13:49.182Z,100042.75
2022-08-03T05:16:17.297Z,100046.69
2022-08-03T05:18:46.192Z,100042.66
2022-08-03T05:21:16.850Z,100051.91
2022-08-03T05:23:45.691Z,100051.38
2022-08-03T05:26:13.771Z,100054.09
2022-08-03T05:28:50.942Z,100058.13
2022-08-03T05:31:20.203Z,100055.41
2022-08-03T05:33:49.138Z,100051.06
2022-08-03T05:36:17.545Z,100054.69
2022-08-03T05:38:46.014Z,100052.84
2022-08-03T05:41:22.649Z,100057.81
2022-08-03T05:43:52.858Z,100054.16
2022-08-03T05:46:21.071Z,100058.97
2022-08-03T05:48:49.585Z,100055.81
2022-08-03T05:51:17.735Z,100053.72
2022-08-03T05:53:46.557Z,100058.53
2022-08-03T05:56:16.443Z,100066.06
2022-08-03T05:58:46.868Z,100062.78
2022-08-03T06:01:17.307Z,100068.78
2022-08-03T06:03:45.632Z,100079.03
2022-08-03T06:06:13.672Z,100070.41
2022-08-03T06:08:42.230Z,100076.28
2022-08-03T06:11:10.365Z,100085.72
2022-08-03T06:13:38.875Z,100085.59
2022-08-03T06:16:07.359Z,100089.78
2022-08-03T06:18:37.626Z,100093.44
2022-08-03T06:21:14.405Z,100077.66
2022-08-03T06:23:54.397Z,100088.81
2022-08-03T06:26:25.500Z,100086.47
2022-08-03T06:28:55.026Z,100089.25
2022-08-03T06:31:32.826Z,100087.38
2022-08-03T06:34:33.267Z,100095.25
2022-08-03T06:36:59.962Z,100089.41
2022-08-03T06:39:30.583Z,100095.53
2022-08-03T06:41:59.121Z,100096.66
2022-08-03T06:44:27.298Z,100095.03
2022-08-03T06:46:56.024Z,100108.75
2022-08-03T06:49:28.558Z,100103.59
2022-08-03T06:52:03.250Z,100105.88
2022-08-03T06:54:35.715Z,100102.53
2022-08-03T06:57:04.233Z,100103.28
2022-08-03T07:00:10.938Z,100100.34
2022-08-03T07:02:20.645Z,100103.75
2022-08-03T07:04:50.853Z,100107.16
2022-08-03T07:07:19.521Z,100104.47
2022-08-03T07:09:56.753Z,100102.31
2022-08-03T07:12:28.013Z,100104.72
2022-08-03T07:15:00.671Z,100104.00
2022-08-03T07:17:30.643Z,100097.91
2022-08-03T07:20:00.721Z,100104.75
2022-08-03T07:22:29.138Z,100109.06
2022-08-03T07:24:57.779Z,100108.25
2022-08-03T07:27:27.093Z,100104.34
2022-08-03T07:29:55.409Z,100106.50
2022-08-03T07:32:23.576Z,100103.41
2022-08-03T07:34:53.112Z,100107.38
2022-08-03T07:37:25.637Z,100100.88
2022-08-03T07:39:53.757Z,100095.97
2022-08-03T07:42:23.453Z,100098.84
2022-08-03T07:44:51.589Z,100097.59
2022-08-03T07:47:22.730Z,100106.44
2022-08-03T07:49:51.074Z,100106.13
2022-08-03T07:52:36.793Z,100103.34
2022-08-03T07:55:07.687Z,100101.31
2022-08-03T07:57:36.331Z,100096.34
2022-08-03T08:00:09.193Z,100095.41
2022-08-03T08:02:37.264Z,100087.63
2022-08-03T08:05:06.204Z,100094.72
2022-08-03T08:07:34.600Z,100097.25
2022-08-03T08:10:02.785Z,100093.56
2022-08-03T08:12:32.265Z,100097.06
2022-08-03T08:15:00.310Z,100090.56
2022-08-03T08:17:28.824Z,100093.53
2022-08-03T08:19:56.970Z,100094.31
2022-08-03T08:22:30.117Z,100097.88
2022-08-03T08:24:59.389Z,100099.31
2022-08-03T08:27:27.614Z,100093.63
2022-08-03T08:30:02.518Z,100099.44
2022-08-03T08:32:37.535Z,100093.88
2022-08-03T08:35:06.227Z,100102.47
2022-08-03T08:37:35.151Z,100098.78
2022-08-03T08:40:03.680Z,100090.00
2022-08-03T08:42:32.761Z,100094.34
2022-08-03T08:45:05.311Z,100095.84
2022-08-03T08:47:51.549Z,100094.19
2022-08-03T08:50:27.175Z,100083.81
2022-08-03T08:52:57.638Z,100089.81
2022-08-03T08:55:26.222Z,100092.28
2022-08-03T08:58:00.284Z,100085.06
2022-08-03T09:00:31.243Z,100092.25
2022-08-03T09:02:59.970Z,100088.59
2022-08-03T09:05:54.659Z,100083.94
2022-08-03T09:08:16.854Z,100073.97
2022-08-03T09:10:44.960Z,100079.25
2022-08-03T09:13:13.114Z,100077.94
2022-08-03T09:15:42.658Z,100071.75
2022-08-03T09:18:32.602Z,100074.25
2022-08-03T09:21:30.216Z,100069.50
2022-08-03T09:24:05.694Z,100083.75
2022-08-03T09:26:36.264Z,100069.53
2022-08-03T09:29:11.217Z,100069.03
2022-08-03T09:31:45.477Z,100067.34
2022-08-03T09:34:15.928Z,100058.81
2022-08-03T09:36:46.013Z,100065.59
2022-08-03T09:39:16.140Z,100069.59
2022-08-03T09:41:46.370Z,100065.97
2022-08-03T09:44:24.171Z,100065.00
2022-08-03T09:46:57.406Z,100067.22
2022-08-03T09:49:26.251Z,100054.50
2022-08-03T09:52:33.607Z,100058.13
2022-08-03T09:54:44.049Z,100052.56
2022-08-03T09:57:23.274Z,100046.16
2022-08-03T09:59:54.966Z,100054.47
2022-08-03T10:02:34.425Z,100047.66
2022-08-03T10:05:02.518Z,100046.06
2022-08-03T10:07:30.668Z,100049.78
2022-08-03T10:10:30.467Z,100045.25
2022-08-03T10:12:49.587Z,100039.41
2022-08-03T10:16:22.287Z,100035.88
2022-08-03T10:18:09.043Z,100039.63
2022-08-03T10:20:39.390Z,100030.91
2022-08-03T10:23:09.372Z,100040.22
2022-08-03T10:25:40.862Z,100032.44
2022-08-03T10:28:13.699Z,100031.75
2022-08-03T10:30:45.362Z,100029.03
2022-08-03T10:33:49.710Z,100019.88
2022-08-03T10:36:09.714Z,100028.09
2022-08-03T10:38:42.226Z,100023.78
2022-08-03T10:41:12.078Z,100022.06
2022-08-03T10:43:49.197Z,100025.63
2022-08-03T10:46:20.796Z,100017.00
2022-08-03T10:48:52.633Z,100009.16
2022-08-03T10:51:22.101Z,99995.88
2022-08-03T10:53:54.553Z,100002.06
2022-08-03T10:57:13.470Z,99991.19
2022-08-03T11:00:00.622Z,99991.63
2022-08-03T11:03:02.152Z,99997.72
2022-08-03T11:05:33.402Z,99999.53
2022-08-03T11:08:30.839Z,99982.59
2022-08-03T11:11:02.087Z,99971.28
2022-08-03T11:13:34.055Z,99979.59
2022-08-03T11:16:21.948Z,99964.47
2022-08-03T11:18:58.831Z,99970.22
2022-08-03T11:21:59.245Z,99971.63
2022-08-03T11:25:01.959Z,99965.75
2022-08-03T11:27:32.964Z,99968.44
2022-08-03T11:30:07.448Z,99968.41
2022-08-03T11:33:00.031Z,99964.63
2022-08-03T11:35:30.344Z,99963.69
2022-08-03T11:38:11.902Z,99958.31
2022-08-03T11:40:42.759Z,99956.53
2022-08-03T11:43:32.066Z,99950.81
2022-08-03T11:46:01.289Z,99952.41
2022-08-03T11:48:35.582Z,99951.31
2022-08-03T11:51:04.821Z,99938.91
2022-08-03T11:53:42.201Z,99951.78
2022-08-03T11:56:12.656Z,99952.50
2022-08-03T11:59:01.718Z,99954.63
2022-08-03T12:01:37.683Z,99949.06
2022-08-03T12:04:07.137Z,99948.59
2022-08-03T12:06:54.749Z,99942.63
2022-08-03T12:09:24.240Z,99947.09
2022-08-03T12:11:59.444Z,99939.00
2022-08-03T12:14:50.242Z,99945.50
2022-08-03T12:17:17.959Z,99936.53
2022-08-03T12:19:46.389Z,99943.50
2022-08-03T12:22:16.166Z,99938.19
2022-08-03T12:24:47.882Z,99936.44
2022-08-03T12:27:24.970Z,99930.59
2022-08-03T12:29:58.496Z,99920.84
2022-08-03T12:32:28.391Z,99918.53
2022-08-03T12:35:01.286Z,99922.56
2022-08-03T12:37:30.832Z,99914.84
2022-08-03T12:40:10.619Z,99913.59
2022-08-03T12:42:40.730Z,99916.28
2022-08-03T12:45:23.306Z,99909.81
2022-08-03T12:47:56.648Z,99912.56
2022-08-03T12:50:26.094Z,99911.13
2022-08-03T12:52:54.844Z,99905.47
2022-08-03T12:55:27.732Z,99900.88
2022-08-03T12:57:55.820Z,99903.56
2022-08-03T13:00:29.471Z,99905.88
2022-08-03T13:03:38.538Z,99899.84
2022-08-03T13:05:52.250Z,99901.97
2022-08-03T13:08:21.316Z,99897.81
2022-08-03T13:10:51.532Z,99895.56
2022-08-03T13:13:20.888Z,99894.94
2022-08-03T13:15:49.283Z,99893.00
2022-08-03T13:18:17.641Z,99891.19
2022-08-03T13:20:45.981Z,99888.38
2022-08-03T13:23:22.426Z,99877.91
2022-08-03T13:25:55.291Z,99876.53
2022-08-03T13:28:24.351Z,99882.09
2022-08-03T13:30:54.411Z,99882.84
2022-08-03T13:33:22.640Z,99882.59
2022-08-03T13:35:50.836Z,99876.19
2022-08-03T13:38:18.991Z,99875.09
2022-08-03T13:40:52.941Z,99874.75
2022-08-03T13:43:22.578Z,99875.97
2022-08-03T13:45:54.874Z,99874.44
2022-08-03T13:48:36.909Z,99874.56
2022-08-03T13:51:21.722Z,99864.47
2022-08-03T13:53:53.766Z,99858.34
2022-08-03T13:56:23.239Z,99868.06
2022-08-03T13:58:51.471Z,99862.69
2022-08-03T14:01:34.307Z,99856.94
2022-08-03T14:04:15.918Z,99859.69
2022-08-03T14:06:50.505Z,99848.97
2022-08-03T14:09:18.697Z,99839.88
2022-08-03T14:12:07.226Z,99841.75
2022-08-03T14:14:36.594Z,99848.63
2022-08-03T14:17:05.309Z,99843.19
2022-08-03T14:19:33.551Z,99848.19
2022-08-03T14:22:21.246Z,99838.69
2022-08-03T14:24:49.603Z,99826.31
2022-08-03T14:27:19.139Z,99842.00
2022-08-03T14:29:47.195Z,99825.31
2022-08-03T14:32:15.562Z,99826.84
2022-08-03T14:34:43.694Z,99827.69
2022-08-03T14:37:11.818Z,99826.06
2022-08-03T14:42:29.851Z,99820.75
2022-08-03T14:45:03.444Z,99822.03
2022-08-03T14:47:34.451Z,99823.69
2022-08-03T14:50:38.500Z,99817.03
2022-08-03T14:53:09.980Z,99815.50
2022-08-03T14:55:49.373Z,99806.47
2022-08-03T14:58:21.875Z,99807.56
2022-08-03T15:00:51.955Z,99813.13
2022-08-03T15:03:23.760Z,99810.63
2022-08-03T15:05:53.069Z,99812.72
2022-08-03T15:08:21.399Z,99816.44
2022-08-03T15:10:49.771Z,99817.59
2022-08-03T15:13:20.669Z,99821.00
2022-08-03T15:15:49.789Z,99822.06
2022-08-03T15:18:18.086Z,99811.00
2022-08-03T15:20:47.254Z,99809.47
2022-08-03T15:23:16.673Z,99803.31
2022-08-03T15:26:04.295Z,99810.78
2022-08-03T15:28:37.331Z,99811.13
2022-08-03T15:31:06.674Z,99811.50
2022-08-03T15:33:35.289Z,99815.91
2022-08-03T15:36:04.043Z,99807.00
2022-08-03T15:38:32.211Z,99806.38
2022-08-03T15:41:00.497Z,99809.72
2022-08-03T15:43:28.706Z,99804.59
2022-08-03T15:46:27.832Z,99806.72
2022-08-03T15:48:47.112Z,99810.16
2022-08-03T15:51:15.493Z,99800.91
2022-08-03T15:53:43.861Z,99799.44
2022-08-03T15:56:16.834Z,99804.50
2022-08-03T15:59:03.539Z,99795.19
2022-08-03T16:01:36.983Z,99798.41
2022-08-03T16:04:05.383Z,99802.69
2022-08-03T16:06:35.155Z,99803.66
2022-08-03T16:09:05.860Z,99800.56
2022-08-03T16:11:52.591Z,99802.69
2022-08-03T16:14:32.350Z,99796.91
2022-08-03T16:17:05.464Z,99795.63
2022-08-03T16:19:33.631Z,99801.25
2022-08-03T16:22:01.777Z,99795.28
2022-08-03T16:24:31.726Z,99800.84
2022-08-03T16:27:04.128Z,99792.09
2022-08-03T16:29:33.065Z,99791.28
2022-08-03T16:32:09.312Z,99801.22
2022-08-03T16:34:39.859Z,99800.00
2022-08-03T16:37:36.433Z,99793.91
2022-08-03T16:39:57.188Z,99791.44
2022-08-03T16:42:25.375Z,99799.31
2022-08-03T16:44:53.550Z,99791.19
2022-08-03T16:47:22.949Z,99797.25
2022-08-03T16:49:56.305Z,99799.78
2022-08-03T16:52:25.603Z,99792.56
2022-08-03T16:54:55.650Z,99797.53
2022-08-03T16:57:59.582Z,99794.69
2022-08-03T17:00:33.874Z,99794.09
2022-08-03T17:03:18.823Z,99797.69
2022-08-03T17:05:51.072Z,99803.19
2022-08-03T17:08:27.259Z,99803.81
2022-08-03T17:10:57.393Z,99810.31
2022-08-03T17:13:39.599Z,99809.75
2022-08-03T17:16:15.127Z,99808.09
2022-08-03T17:18:51.096Z,99816.66
2022-08-03T17:21:29.741Z,99813.13
2022-08-03T17:24:12.320Z,99820.69
2022-08-03T17:26:44.785Z,99819.88
2022-08-03T17:29:15.438Z,99829.94
2022-08-03T17:31:49.076Z,99824.91
2022-08-03T17:34:18.899Z,99823.25
2022-08-03T17:37:06.000Z,99829.53
2022-08-03T17:39:58.145Z,99819.09
2022-08-03T17:42:38.931Z,99831.63
2022-08-03T17:45:08.258Z,99834.56
2022-08-03T17:47:43.983Z,99830.38
2022-08-03T17:50:24.148Z,99838.69
2022-08-03T17:53:07.702Z,99829.72
2022-08-03T17:55:55.379Z,99834.13
2022-08-03T17:58:41.278Z,99831.16
2022-08-03T18:02:00.531Z,99832.59
2022-08-03T18:04:30.202Z,99829.47
2022-08-03T18:07:11.777Z,99839.44
2022-08-03T18:10:04.239Z,99834.59
2022-08-03T18:12:45.075Z,99838.31
2022-08-03T18:15:21.450Z,99845.97
2022-08-03T18:18:02.289Z,99844.09
2022-08-03T18:20:41.263Z,99846.75
2022-08-03T18:23:25.367Z,99849.66
2022-08-03T18:26:04.691Z,99840.25
2022-08-03T18:28:33.524Z,99845.41
2022-08-03T18:31:06.005Z,99851.25
2022-08-03T18:36:29.945Z,99867.41
2022-08-03T18:39:00.126Z,99855.28
2022-08-03T18:41:32.208Z,99864.03
2022-08-03T18:44:08.915Z,99857.72
2022-08-03T18:47:07.006Z,99865.59
2022-08-03T18:49:43.492Z,99875.16
2022-08-03T18:52:18.023Z,99882.41
2022-08-03T18:55:08.440Z,99878.56
2022-08-03T18:57:51.435Z,99877.03
2022-08-03T19:00:23.879Z,99877.41
2022-08-03T19:02:59.093Z,99883.59
2022-08-03T19:05:56.235Z,99886.00
2022-08-03T19:08:28.336Z,99893.03
2022-08-03T19:11:03.624Z,99891.97
2022-08-03T19:13:50.049Z,99891.16
2022-08-03T19:16:28.643Z,99890.66
2022-08-03T19:19:00.693Z,99888.06
2022-08-03T19:21:30.877Z,99895.50
2022-08-03T19:24:06.613Z,99893.84
2022-08-03T19:26:39.742Z,99899.84
2022-08-03T19:29:15.199Z,99901.72
2022-08-03T19:31:59.148Z,99904.50
2022-08-03T19:34:30.185Z,99900.25
2022-08-03T19:36:59.759Z,99906.47
2022-08-03T19:39:28.179Z,99905.28
2022-08-03T19:42:12.258Z,99915.06
2022-08-03T19:44:57.933Z,99914.78
2022-08-03T19:47:31.579Z,99907.03
2022-08-03T19:50:10.330Z,99912.91
2022-08-03T19:52:48.731Z,99910.16
2022-08-03T19:55:21.306Z,99912.31
2022-08-03T19:57:55.100Z,99923.19
2022-08-03T20:00:30.570Z,99923.91
2022-08-03T20:03:05.673Z,99920.97
2022-08-03T20:05:51.946Z,99925.53
2022-08-03T20:08:22.571Z,99930.66
2022-08-03T20:10:51.377Z,99924.41
2022-08-03T20:13:21.497Z,99925.03
2022-08-03T20:15:58.170Z,99924.28
2022-08-03T20:18:29.462Z,99931.22
2022-08-03T20:21:01.121Z,99926.53
2022-08-03T20:23:37.331Z,99928.25
2022-08-03T20:26:06.446Z,99928.69
2022-08-03T20:28:50.712Z,99923.59
2022-08-03T20:31:32.591Z,99919.78
2022-08-03T20:34:04.982Z,99916.53
2022-08-03T20:36:35.950Z,99906.88
2022-08-03T20:39:06.710Z,99916.25
2022-08-03T20:41:36.321Z,99920.78
2022-08-03T20:44:05.625Z,99917.19
2022-08-03T20:46:53.470Z,99917.03
2022-08-03T20:49:28.164Z,99914.31
2022-08-03T20:51:56.279Z,99915.09
2022-08-03T20:54:31.290Z,99914.13
2022-08-03T20:57:03.977Z,99914.56
2022-08-03T20:59:50.694Z,99904.44
2022-08-03T21:02:29.603Z,99907.47
2022-08-03T21:05:03.672Z,99902.56
2022-08-03T21:08:04.547Z,99903.41
2022-08-03T21:10:30.075Z,99912.53
2022-08-03T21:13:04.309Z,99853.31
2022-08-03T21:16:12.309Z,99918.09
2022-08-03T21:18:46.935Z,99909.22
2022-08-03T21:21:17.114Z,99922.78
2022-08-03T21:23:48.668Z,99922.97
2022-08-03T21:26:17.489Z,99931.34
2022-08-03T21:28:47.553Z,99929.81
2022-08-03T21:31:24.282Z,99937.63
2022-08-03T21:33:57.736Z,99941.28
2022-08-03T21:36:27.712Z,99941.19
2022-08-03T21:38:57.799Z,99943.63
2022-08-03T21:41:26.981Z,99946.34
2022-08-03T21:43:55.314Z,99939.13
2022-08-03T21:46:24.902Z,99942.31
2022-08-03T21:50:06.832Z,99948.72
2022-08-03T21:51:50.900Z,99947.09
2022-08-03T21:54:21.819Z,99958.41
2022-08-03T21:56:52.367Z,99957.59
2022-08-03T21:59:24.350Z,99957.94
2022-08-03T22:01:55.429Z,99958.31
2022-08-03T22:04:54.948Z,99964.22
2022-08-03T22:07:17.923Z,99958.28
2022-08-03T22:09:51.443Z,99961.81
2022-08-03T22:12:22.999Z,99964.69
2022-08-03T22:15:00.244Z,99963.84
2022-08-03T22:17:55.190Z,99964.66
2022-08-03T22:20:21.224Z,99961.31
2022-08-03T22:22:55.142Z,99966.50
2022-08-03T22:25:29.193Z,99965.16
2022-08-03T22:27:59.219Z,99961.44
2022-08-03T22:30:27.628Z,99963.66
2022-08-03T22:32:57.751Z,99968.50
2022-08-03T22:35:28.778Z,99972.00
2022-08-03T22:37:58.612Z,99967.66
2022-08-03T22:40:28.112Z,99973.63
2022-08-03T22:42:56.496Z,99969.75
2022-08-03T22:46:07.647Z,99972.94
2022-08-03T22:48:14.725Z,99978.63
2022-08-03T22:50:45.332Z,99971.25
2022-08-03T22:53:17.994Z,99971.06
2022-08-03T22:55:46.394Z,99976.25
2022-08-03T22:58:16.821Z,99982.94
2022-08-03T23:00:53.657Z,99986.56
2022-08-03T23:03:59.923Z,99980.72
2022-08-03T23:06:20.336Z,99978.50
2022-08-03T23:08:50.108Z,99979.13
2022-08-03T23:11:19.661Z,99985.16
2022-08-03T23:13:49.839Z,99982.44
2022-08-03T23:16:28.874Z,99989.78
2022-08-03T23:18:59.243Z,99983.38
2022-08-03T23:21:53.466Z,99982.81
2022-08-03T23:24:29.870Z,99991.66
2022-08-03T23:26:59.430Z,99991.13
2022-08-03T23:29:29.148Z,100001.00
2022-08-03T23:31:59.499Z,99998.56
2022-08-03T23:34:46.478Z,99991.72
2022-08-03T23:37:16.201Z,99995.34
2022-08-03T23:39:47.168Z,99988.91
2022-08-03T23:42:19.161Z,99995.19
2022-08-03T23:44:47.947Z,99987.91
2022-08-03T23:47:16.189Z,99992.97
2022-08-03T23:49:44.715Z,99999.72
2022-08-03T23:52:21.988Z,100001.75
2022-08-03T23:55:04.190Z,99996.75
2022-08-03T23:57:42.090Z,100003.31
